sensor_id;sensor_type;location;lat;lon;timestamp;temperature;humidity
15113;DHT22;7657;50.140;7.076;2023-01-19T00:00:25;-0.20;99.90
15113;DHT22;7657;50.140;7.076;2023-01-19T00:02:52;-0.20;99.90
15113;DHT22;7657;50.140;7.076;2023-01-19T00:05:19;-0.20;99.90
15113;DHT22;7657;50.140;7.076;2023-01-19T00:07:46;-0.20;99.90
15113;DHT22;7657;50.140;7.076;2023-01-19T00:10:13;-0.20;99.90
15113;DHT22;7657;50.140;7.076;2023-01-19T00:12:41;-0.20;99.90
15113;DHT22;7657;50.140;7.076;2023-01-19T00:15:09;-0.20;99.90
15113;DHT22;7657;50.140;7.076;2023-01-19T00:17:36;-0.20;99.90
15113;DHT22;7657;50.140;7.076;2023-01-19T00:20:06;-0.10;99.90
15113;DHT22;7657;50.140;7.076;2023-01-19T00:22:33;-0.10;99.90
15113;DHT22;7657;50.140;7.076;2023-01-19T00:25:00;-0.10;99.90
15113;DHT22;7657;50.140;7.076;2023-01-19T00:27:28;0.00;99.90
15113;DHT22;7657;50.140;7.076;2023-01-19T00:30:00;0.00;99.90
15113;DHT22;7657;50.140;7.076;2023-01-19T00:32:27;0.10;99.90
15113;DHT22;7657;50.140;7.076;2023-01-19T00:34:54;0.10;99.90
15113;DHT22;7657;50.140;7.076;2023-01-19T00:37:21;0.20;99.90
15113;DHT22;7657;50.140;7.076;2023-01-19T00:39:48;0.20;99.90
15113;DHT22;7657;50.140;7.076;2023-01-19T00:42:15;0.10;99.90
15113;DHT22;7657;50.140;7.076;2023-01-19T00:45:01;0.00;99.90
15113;DHT22;7657;50.140;7.076;2023-01-19T00:47:28;0.10;99.90
15113;DHT22;7657;50.140;7.076;2023-01-19T00:49:54;0.10;99.90
15113;DHT22;7657;50.140;7.076;2023-01-19T00:52:21;0.20;99.90
15113;DHT22;7657;50.140;7.076;2023-01-19T00:54:48;0.30;99.90
15113;DHT22;7657;50.140;7.076;2023-01-19T00:57:15;0.20;99.90
15113;DHT22;7657;50.140;7.076;2023-01-19T00:59:43;0.20;99.90
15113;DHT22;7657;50.140;7.076;2023-01-19T01:02:12;0.20;99.90
15113;DHT22;7657;50.140;7.076;2023-01-19T01:04:39;0.30;99.90
15113;DHT22;7657;50.140;7.076;2023-01-19T01:07:05;0.30;99.90
15113;DHT22;7657;50.140;7.076;2023-01-19T01:09:32;0.40;99.90
15113;DHT22;7657;50.140;7.076;2023-01-19T01:11:59;0.40;99.90
15113;DHT22;7657;50.140;7.076;2023-01-19T01:14:26;0.40;99.90
15113;DHT22;7657;50.140;7.076;2023-01-19T01:16:53;0.40;99.90
15113;DHT22;7657;50.140;7.076;2023-01-19T01:19:22;0.30;99.90
15113;DHT22;7657;50.140;7.076;2023-01-19T01:21:48;0.30;99.90
15113;DHT22;7657;50.140;7.076;2023-01-19T01:24:16;0.40;99.90
15113;DHT22;7657;50.140;7.076;2023-01-19T01:26:43;0.40;99.90
15113;DHT22;7657;50.140;7.076;2023-01-19T01:29:10;0.50;99.90
15113;DHT22;7657;50.140;7.076;2023-01-19T01:31:37;0.50;99.90
15113;DHT22;7657;50.140;7.076;2023-01-19T01:34:04;0.60;99.90
15113;DHT22;7657;50.140;7.076;2023-01-19T01:36:33;0.60;99.90
15113;DHT22;7657;50.140;7.076;2023-01-19T01:39:00;0.70;99.90
15113;DHT22;7657;50.140;7.076;2023-01-19T01:41:27;0.80;99.90
15113;DHT22;7657;50.140;7.076;2023-01-19T01:43:56;0.80;99.90
15113;DHT22;7657;50.140;7.076;2023-01-19T01:46:25;0.80;99.90
15113;DHT22;7657;50.140;7.076;2023-01-19T01:48:56;0.70;99.90
15113;DHT22;7657;50.140;7.076;2023-01-19T01:51:29;0.90;99.90
15113;DHT22;7657;50.140;7.076;2023-01-19T01:54:07;0.90;99.90
15113;DHT22;7657;50.140;7.076;2023-01-19T01:56:37;0.90;99.90
15113;DHT22;7657;50.140;7.076;2023-01-19T01:59:07;0.80;99.90
15113;DHT22;7657;50.140;7.076;2023-01-19T02:01:35;0.80;99.90
15113;DHT22;7657;50.140;7.076;2023-01-19T02:04:19;0.70;99.90
15113;DHT22;7657;50.140;7.076;2023-01-19T02:06:47;0.70;99.90
15113;DHT22;7657;50.140;7.076;2023-01-19T02:09:35;0.60;99.90
15113;DHT22;7657;50.140;7.076;2023-01-19T02:12:21;0.60;99.90
15113;DHT22;7657;50.140;7.076;2023-01-19T02:15:13;0.70;99.90
15113;DHT22;7657;50.140;7.076;2023-01-19T02:17:41;0.70;99.90
15113;DHT22;7657;50.140;7.076;2023-01-19T02:20:09;0.60;99.90
15113;DHT22;7657;50.140;7.076;2023-01-19T02:22:43;0.50;99.90
15113;DHT22;7657;50.140;7.076;2023-01-19T02:25:12;0.40;99.90
15113;DHT22;7657;50.140;7.076;2023-01-19T02:27:39;0.40;99.90
15113;DHT22;7657;50.140;7.076;2023-01-19T02:30:08;0.50;99.90
15113;DHT22;7657;50.140;7.076;2023-01-19T02:32:36;0.50;99.90
15113;DHT22;7657;50.140;7.076;2023-01-19T02:35:03;0.60;99.90
15113;DHT22;7657;50.140;7.076;2023-01-19T02:37:33;0.50;99.90
15113;DHT22;7657;50.140;7.076;2023-01-19T02:40:04;0.50;99.90
15113;DHT22;7657;50.140;7.076;2023-01-19T02:42:36;0.50;99.90
15113;DHT22;7657;50.140;7.076;2023-01-19T02:45:05;0.60;99.90
15113;DHT22;7657;50.140;7.076;2023-01-19T02:47:37;0.60;99.90
15113;DHT22;7657;50.140;7.076;2023-01-19T02:50:05;0.70;99.90
15113;DHT22;7657;50.140;7.076;2023-01-19T02:52:56;0.60;99.90
15113;DHT22;7657;50.140;7.076;2023-01-19T02:55:27;0.60;99.90
15113;DHT22;7657;50.140;7.076;2023-01-19T02:58:02;0.50;99.90
15113;DHT22;7657;50.140;7.076;2023-01-19T03:00:36;0.50;99.90
15113;DHT22;7657;50.140;7.076;2023-01-19T03:03:19;0.50;99.90
15113;DHT22;7657;50.140;7.076;2023-01-19T03:05:54;0.50;99.90
15113;DHT22;7657;50.140;7.076;2023-01-19T03:08:31;0.60;99.90
15113;DHT22;7657;50.140;7.076;2023-01-19T03:11:02;0.50;99.90
15113;DHT22;7657;50.140;7.076;2023-01-19T03:13:38;0.60;99.90
15113;DHT22;7657;50.140;7.076;2023-01-19T03:16:13;0.60;99.90
15113;DHT22;7657;50.140;7.076;2023-01-19T03:18:44;0.60;99.90
15113;DHT22;7657;50.140;7.076;2023-01-19T03:21:13;0.60;99.90
15113;DHT22;7657;50.140;7.076;2023-01-19T03:23:42;0.50;99.90
15113;DHT22;7657;50.140;7.076;2023-01-19T03:26:15;0.40;99.90
15113;DHT22;7657;50.140;7.076;2023-01-19T03:28:45;0.40;99.90
15113;DHT22;7657;50.140;7.076;2023-01-19T03:31:15;0.40;99.90
15113;DHT22;7657;50.140;7.076;2023-01-19T03:33:46;0.60;99.90
15113;DHT22;7657;50.140;7.076;2023-01-19T03:36:19;0.60;99.90
15113;DHT22;7657;50.140;7.076;2023-01-19T03:38:48;0.70;99.90
15113;DHT22;7657;50.140;7.076;2023-01-19T03:41:18;0.70;99.90
15113;DHT22;7657;50.140;7.076;2023-01-19T03:43:49;0.70;99.90
15113;DHT22;7657;50.140;7.076;2023-01-19T03:46:18;0.70;99.90
15113;DHT22;7657;50.140;7.076;2023-01-19T03:48:46;0.60;99.90
15113;DHT22;7657;50.140;7.076;2023-01-19T03:51:15;0.70;99.90
15113;DHT22;7657;50.140;7.076;2023-01-19T03:53:43;0.50;99.90
15113;DHT22;7657;50.140;7.076;2023-01-19T03:56:16;0.50;99.90
15113;DHT22;7657;50.140;7.076;2023-01-19T03:58:44;0.40;99.90
15113;DHT22;7657;50.140;7.076;2023-01-19T04:01:12;0.50;99.90
15113;DHT22;7657;50.140;7.076;2023-01-19T04:03:39;0.40;99.90
15113;DHT22;7657;50.140;7.076;2023-01-19T04:06:06;0.40;99.90
15113;DHT22;7657;50.140;7.076;2023-01-19T04:08:33;0.40;99.90
15113;DHT22;7657;50.140;7.076;2023-01-19T04:11:01;0.20;99.90
15113;DHT22;7657;50.140;7.076;2023-01-19T04:13:28;0.30;99.90
15113;DHT22;7657;50.140;7.076;2023-01-19T04:15:58;0.30;99.90
15113;DHT22;7657;50.140;7.076;2023-01-19T04:18:26;0.30;99.90
15113;DHT22;7657;50.140;7.076;2023-01-19T04:20:53;0.40;99.90
15113;DHT22;7657;50.140;7.076;2023-01-19T04:23:20;0.30;99.90
15113;DHT22;7657;50.140;7.076;2023-01-19T04:25:47;0.30;99.90
15113;DHT22;7657;50.140;7.076;2023-01-19T04:28:13;0.40;99.90
15113;DHT22;7657;50.140;7.076;2023-01-19T04:30:41;0.30;99.90
15113;DHT22;7657;50.140;7.076;2023-01-19T04:33:08;0.50;99.90
15113;DHT22;7657;50.140;7.076;2023-01-19T04:35:36;0.50;99.90
15113;DHT22;7657;50.140;7.076;2023-01-19T04:38:03;0.40;99.90
15113;DHT22;7657;50.140;7.076;2023-01-19T04:40:30;0.40;99.90
15113;DHT22;7657;50.140;7.076;2023-01-19T04:42:56;0.40;99.90
15113;DHT22;7657;50.140;7.076;2023-01-19T04:45:23;0.30;99.90
15113;DHT22;7657;50.140;7.076;2023-01-19T04:47:50;0.30;99.90
15113;DHT22;7657;50.140;7.076;2023-01-19T04:50:17;0.40;99.90
15113;DHT22;7657;50.140;7.076;2023-01-19T04:52:45;0.30;99.90
15113;DHT22;7657;50.140;7.076;2023-01-19T04:55:13;0.30;99.90
15113;DHT22;7657;50.140;7.076;2023-01-19T04:57:41;0.30;99.90
15113;DHT22;7657;50.140;7.076;2023-01-19T05:00:09;0.30;99.90
15113;DHT22;7657;50.140;7.076;2023-01-19T05:02:36;0.40;99.90
15113;DHT22;7657;50.140;7.076;2023-01-19T05:05:04;0.30;99.90
15113;DHT22;7657;50.140;7.076;2023-01-19T05:07:31;0.30;99.90
15113;DHT22;7657;50.140;7.076;2023-01-19T05:10:01;0.30;99.90
15113;DHT22;7657;50.140;7.076;2023-01-19T05:12:28;0.30;99.90
15113;DHT22;7657;50.140;7.076;2023-01-19T05:14:54;0.30;99.90
15113;DHT22;7657;50.140;7.076;2023-01-19T05:17:21;0.40;99.90
15113;DHT22;7657;50.140;7.076;2023-01-19T05:19:48;0.50;99.90
15113;DHT22;7657;50.140;7.076;2023-01-19T05:22:15;0.40;99.90
15113;DHT22;7657;50.140;7.076;2023-01-19T05:24:42;0.40;99.90
15113;DHT22;7657;50.140;7.076;2023-01-19T05:27:11;0.40;99.90
15113;DHT22;7657;50.140;7.076;2023-01-19T05:29:38;0.50;99.90
15113;DHT22;7657;50.140;7.076;2023-01-19T05:32:04;0.50;99.90
15113;DHT22;7657;50.140;7.076;2023-01-19T05:34:31;0.50;99.90
15113;DHT22;7657;50.140;7.076;2023-01-19T05:36:58;0.50;99.90
15113;DHT22;7657;50.140;7.076;2023-01-19T05:39:25;0.60;99.90
15113;DHT22;7657;50.140;7.076;2023-01-19T05:41:53;0.50;99.90
15113;DHT22;7657;50.140;7.076;2023-01-19T05:44:21;0.60;99.90
15113;DHT22;7657;50.140;7.076;2023-01-19T05:46:48;0.70;99.90
15113;DHT22;7657;50.140;7.076;2023-01-19T05:49:15;0.70;99.90
15113;DHT22;7657;50.140;7.076;2023-01-19T05:51:42;0.80;99.90
15113;DHT22;7657;50.140;7.076;2023-01-19T05:54:12;0.70;99.90
15113;DHT22;7657;50.140;7.076;2023-01-19T05:56:39;0.80;99.90
15113;DHT22;7657;50.140;7.076;2023-01-19T05:59:06;0.90;99.90
15113;DHT22;7657;50.140;7.076;2023-01-19T06:01:34;1.00;99.90
15113;DHT22;7657;50.140;7.076;2023-01-19T06:04:02;1.00;99.90
15113;DHT22;7657;50.140;7.076;2023-01-19T06:06:29;1.00;99.90
15113;DHT22;7657;50.140;7.076;2023-01-19T06:08:55;1.10;99.90
15113;DHT22;7657;50.140;7.076;2023-01-19T06:11:22;1.20;99.90
15113;DHT22;7657;50.140;7.076;2023-01-19T06:13:50;1.20;99.90
15113;DHT22;7657;50.140;7.076;2023-01-19T06:16:17;1.20;99.90
15113;DHT22;7657;50.140;7.076;2023-01-19T06:18:45;1.20;99.90
15113;DHT22;7657;50.140;7.076;2023-01-19T06:21:12;1.30;99.90
15113;DHT22;7657;50.140;7.076;2023-01-19T06:23:39;1.20;99.90
15113;DHT22;7657;50.140;7.076;2023-01-19T06:26:06;1.20;99.90
15113;DHT22;7657;50.140;7.076;2023-01-19T06:28:33;1.10;99.90
15113;DHT22;7657;50.140;7.076;2023-01-19T06:31:00;1.00;99.90
15113;DHT22;7657;50.140;7.076;2023-01-19T06:33:27;0.90;99.90
15113;DHT22;7657;50.140;7.076;2023-01-19T06:35:55;0.90;99.90
15113;DHT22;7657;50.140;7.076;2023-01-19T06:38:22;1.10;99.90
15113;DHT22;7657;50.140;7.076;2023-01-19T06:40:53;1.10;99.90
15113;DHT22;7657;50.140;7.076;2023-01-19T06:43:23;1.10;99.90
15113;DHT22;7657;50.140;7.076;2023-01-19T06:45:50;1.00;99.90
15113;DHT22;7657;50.140;7.076;2023-01-19T06:48:18;0.90;99.90
15113;DHT22;7657;50.140;7.076;2023-01-19T06:50:45;0.70;99.90
15113;DHT22;7657;50.140;7.076;2023-01-19T06:53:14;0.70;99.90
15113;DHT22;7657;50.140;7.076;2023-01-19T06:55:42;0.60;99.90
15113;DHT22;7657;50.140;7.076;2023-01-19T06:58:09;0.60;99.90
15113;DHT22;7657;50.140;7.076;2023-01-19T07:00:36;0.50;99.90
15113;DHT22;7657;50.140;7.076;2023-01-19T07:03:04;0.40;99.90
15113;DHT22;7657;50.140;7.076;2023-01-19T07:05:33;0.40;99.90
15113;DHT22;7657;50.140;7.076;2023-01-19T07:08:00;0.40;99.90
15113;DHT22;7657;50.140;7.076;2023-01-19T07:10:29;0.40;99.90
15113;DHT22;7657;50.140;7.076;2023-01-19T07:12:56;0.40;99.90
15113;DHT22;7657;50.140;7.076;2023-01-19T07:15:23;0.60;99.90
15113;DHT22;7657;50.140;7.076;2023-01-19T07:17:50;0.60;99.90
15113;DHT22;7657;50.140;7.076;2023-01-19T07:20:17;0.60;99.90
15113;DHT22;7657;50.140;7.076;2023-01-19T07:22:44;0.70;99.90
15113;DHT22;7657;50.140;7.076;2023-01-19T07:25:11;0.70;99.90
15113;DHT22;7657;50.140;7.076;2023-01-19T07:27:39;0.80;99.90
15113;DHT22;7657;50.140;7.076;2023-01-19T07:30:07;0.90;99.90
15113;DHT22;7657;50.140;7.076;2023-01-19T07:32:34;1.10;99.90
15113;DHT22;7657;50.140;7.076;2023-01-19T07:35:01;1.20;99.90
15113;DHT22;7657;50.140;7.076;2023-01-19T07:37:28;1.30;99.90
15113;DHT22;7657;50.140;7.076;2023-01-19T07:39:55;1.20;99.90
15113;DHT22;7657;50.140;7.076;2023-01-19T07:42:22;1.10;99.90
15113;DHT22;7657;50.140;7.076;2023-01-19T07:44:50;1.10;99.90
15113;DHT22;7657;50.140;7.076;2023-01-19T07:47:17;1.20;99.90
15113;DHT22;7657;50.140;7.076;2023-01-19T07:49:44;1.30;99.90
15113;DHT22;7657;50.140;7.076;2023-01-19T07:52:11;1.30;99.90
15113;DHT22;7657;50.140;7.076;2023-01-19T07:54:38;1.30;99.90
15113;DHT22;7657;50.140;7.076;2023-01-19T07:57:04;1.20;99.90
15113;DHT22;7657;50.140;7.076;2023-01-19T07:59:31;1.20;99.90
15113;DHT22;7657;50.140;7.076;2023-01-19T08:02:00;1.10;99.90
15113;DHT22;7657;50.140;7.076;2023-01-19T08:04:27;1.20;99.90
15113;DHT22;7657;50.140;7.076;2023-01-19T08:06:54;1.30;99.90
15113;DHT22;7657;50.140;7.076;2023-01-19T08:09:21;1.30;99.90
15113;DHT22;7657;50.140;7.076;2023-01-19T08:11:48;1.30;99.90
15113;DHT22;7657;50.140;7.076;2023-01-19T08:14:16;1.30;99.90
15113;DHT22;7657;50.140;7.076;2023-01-19T08:16:43;1.40;99.90
15113;DHT22;7657;50.140;7.076;2023-01-19T08:19:11;1.30;99.90
15113;DHT22;7657;50.140;7.076;2023-01-19T08:21:38;1.40;99.90
15113;DHT22;7657;50.140;7.076;2023-01-19T08:24:05;1.30;99.90
15113;DHT22;7657;50.140;7.076;2023-01-19T08:26:34;1.20;99.90
15113;DHT22;7657;50.140;7.076;2023-01-19T08:29:02;1.10;99.90
15113;DHT22;7657;50.140;7.076;2023-01-19T08:31:30;1.10;99.90
15113;DHT22;7657;50.140;7.076;2023-01-19T08:33:57;1.10;99.90
15113;DHT22;7657;50.140;7.076;2023-01-19T08:36:25;1.20;99.90
15113;DHT22;7657;50.140;7.076;2023-01-19T08:38:52;1.20;99.90
15113;DHT22;7657;50.140;7.076;2023-01-19T08:41:19;1.10;99.90
15113;DHT22;7657;50.140;7.076;2023-01-19T08:43:47;1.10;99.90
15113;DHT22;7657;50.140;7.076;2023-01-19T08:46:14;1.00;99.90
15113;DHT22;7657;50.140;7.076;2023-01-19T08:48:43;1.00;99.90
15113;DHT22;7657;50.140;7.076;2023-01-19T08:51:12;1.00;99.90
15113;DHT22;7657;50.140;7.076;2023-01-19T08:53:41;1.00;99.90
15113;DHT22;7657;50.140;7.076;2023-01-19T08:56:09;0.90;99.90
15113;DHT22;7657;50.140;7.076;2023-01-19T08:58:37;0.80;99.90
15113;DHT22;7657;50.140;7.076;2023-01-19T09:01:05;0.70;99.90
15113;DHT22;7657;50.140;7.076;2023-01-19T09:03:32;0.70;99.90
15113;DHT22;7657;50.140;7.076;2023-01-19T09:05:59;0.70;99.90
15113;DHT22;7657;50.140;7.076;2023-01-19T09:08:27;0.80;99.90
15113;DHT22;7657;50.140;7.076;2023-01-19T09:10:55;0.90;99.90
15113;DHT22;7657;50.140;7.076;2023-01-19T09:13:22;0.80;99.90
15113;DHT22;7657;50.140;7.076;2023-01-19T09:15:49;0.80;99.90
15113;DHT22;7657;50.140;7.076;2023-01-19T09:18:18;0.80;99.90
15113;DHT22;7657;50.140;7.076;2023-01-19T09:20:47;1.00;99.90
15113;DHT22;7657;50.140;7.076;2023-01-19T09:23:15;0.90;99.90
15113;DHT22;7657;50.140;7.076;2023-01-19T09:25:44;1.00;99.90
15113;DHT22;7657;50.140;7.076;2023-01-19T09:28:14;0.90;99.90
15113;DHT22;7657;50.140;7.076;2023-01-19T09:30:42;0.90;99.90
15113;DHT22;7657;50.140;7.076;2023-01-19T09:33:11;0.90;99.90
15113;DHT22;7657;50.140;7.076;2023-01-19T09:35:39;0.90;99.90
15113;DHT22;7657;50.140;7.076;2023-01-19T09:38:07;1.00;99.90
15113;DHT22;7657;50.140;7.076;2023-01-19T09:40:36;1.20;99.90
15113;DHT22;7657;50.140;7.076;2023-01-19T09:43:15;1.20;99.90
15113;DHT22;7657;50.140;7.076;2023-01-19T09:45:46;1.20;99.90
15113;DHT22;7657;50.140;7.076;2023-01-19T09:48:24;1.30;99.90
15113;DHT22;7657;50.140;7.076;2023-01-19T09:50:56;1.30;99.90
15113;DHT22;7657;50.140;7.076;2023-01-19T09:53:27;1.30;99.90
15113;DHT22;7657;50.140;7.076;2023-01-19T09:55:59;1.40;99.90
15113;DHT22;7657;50.140;7.076;2023-01-19T09:58:27;1.40;99.90
15113;DHT22;7657;50.140;7.076;2023-01-19T10:01:01;1.40;99.90
15113;DHT22;7657;50.140;7.076;2023-01-19T10:03:29;1.40;99.90
15113;DHT22;7657;50.140;7.076;2023-01-19T10:06:00;1.40;99.90
15113;DHT22;7657;50.140;7.076;2023-01-19T10:08:34;1.40;99.90
15113;DHT22;7657;50.140;7.076;2023-01-19T10:11:03;1.30;99.90
15113;DHT22;7657;50.140;7.076;2023-01-19T10:13:42;1.40;99.90
15113;DHT22;7657;50.140;7.076;2023-01-19T10:16:24;1.30;99.90
15113;DHT22;7657;50.140;7.076;2023-01-19T10:18:59;1.40;99.90
15113;DHT22;7657;50.140;7.076;2023-01-19T10:21:32;1.30;99.90
15113;DHT22;7657;50.140;7.076;2023-01-19T10:24:04;1.20;99.90
15113;DHT22;7657;50.140;7.076;2023-01-19T10:26:33;1.10;99.90
15113;DHT22;7657;50.140;7.076;2023-01-19T10:29:05;1.10;99.90
15113;DHT22;7657;50.140;7.076;2023-01-19T10:31:34;1.00;99.90
15113;DHT22;7657;50.140;7.076;2023-01-19T10:34:03;1.10;99.90
15113;DHT22;7657;50.140;7.076;2023-01-19T10:36:34;1.10;99.90
15113;DHT22;7657;50.140;7.076;2023-01-19T10:39:02;1.00;99.90
15113;DHT22;7657;50.140;7.076;2023-01-19T10:41:38;1.00;99.90
15113;DHT22;7657;50.140;7.076;2023-01-19T10:44:08;1.00;99.90
15113;DHT22;7657;50.140;7.076;2023-01-19T10:46:39;1.10;99.90
15113;DHT22;7657;50.140;7.076;2023-01-19T10:49:22;1.10;99.90
15113;DHT22;7657;50.140;7.076;2023-01-19T10:51:50;1.20;99.90
15113;DHT22;7657;50.140;7.076;2023-01-19T10:54:18;1.10;99.90
15113;DHT22;7657;50.140;7.076;2023-01-19T10:56:50;1.20;99.90
15113;DHT22;7657;50.140;7.076;2023-01-19T10:59:35;1.20;99.90
15113;DHT22;7657;50.140;7.076;2023-01-19T11:02:16;1.20;99.90
15113;DHT22;7657;50.140;7.076;2023-01-19T11:04:44;1.20;99.90
15113;DHT22;7657;50.140;7.076;2023-01-19T11:07:13;1.30;99.90
15113;DHT22;7657;50.140;7.076;2023-01-19T11:09:40;1.30;99.90
15113;DHT22;7657;50.140;7.076;2023-01-19T11:12:15;1.20;99.90
15113;DHT22;7657;50.140;7.076;2023-01-19T11:14:44;1.30;99.90
15113;DHT22;7657;50.140;7.076;2023-01-19T11:17:18;1.30;99.90
15113;DHT22;7657;50.140;7.076;2023-01-19T11:19:53;1.30;99.90
15113;DHT22;7657;50.140;7.076;2023-01-19T11:22:24;1.40;99.90
15113;DHT22;7657;50.140;7.076;2023-01-19T11:24:52;1.30;99.90
15113;DHT22;7657;50.140;7.076;2023-01-19T11:27:22;1.30;99.90
15113;DHT22;7657;50.140;7.076;2023-01-19T11:29:59;1.30;99.90
15113;DHT22;7657;50.140;7.076;2023-01-19T11:32:26;1.30;99.90
15113;DHT22;7657;50.140;7.076;2023-01-19T11:34:53;1.40;99.90
15113;DHT22;7657;50.140;7.076;2023-01-19T11:37:29;1.40;99.90
15113;DHT22;7657;50.140;7.076;2023-01-19T11:39:57;1.40;99.90
15113;DHT22;7657;50.140;7.076;2023-01-19T11:42:27;1.40;99.90
15113;DHT22;7657;50.140;7.076;2023-01-19T11:45:03;1.50;99.90
15113;DHT22;7657;50.140;7.076;2023-01-19T11:47:37;1.50;99.90
15113;DHT22;7657;50.140;7.076;2023-01-19T11:50:13;1.60;99.90
15113;DHT22;7657;50.140;7.076;2023-01-19T11:52:43;1.50;99.90
15113;DHT22;7657;50.140;7.076;2023-01-19T11:55:16;1.50;99.90
15113;DHT22;7657;50.140;7.076;2023-01-19T11:57:48;1.40;99.90
15113;DHT22;7657;50.140;7.076;2023-01-19T12:00:24;1.40;99.90
15113;DHT22;7657;50.140;7.076;2023-01-19T12:02:57;1.60;99.90
15113;DHT22;7657;50.140;7.076;2023-01-19T12:05:29;1.70;99.90
15113;DHT22;7657;50.140;7.076;2023-01-19T12:08:00;1.70;99.90
15113;DHT22;7657;50.140;7.076;2023-01-19T12:10:32;1.80;99.90
15113;DHT22;7657;50.140;7.076;2023-01-19T12:13:01;1.80;99.90
15113;DHT22;7657;50.140;7.076;2023-01-19T12:15:34;1.90;99.90
15113;DHT22;7657;50.140;7.076;2023-01-19T12:18:04;1.90;99.90
15113;DHT22;7657;50.140;7.076;2023-01-19T12:20:35;1.90;99.90
15113;DHT22;7657;50.140;7.076;2023-01-19T12:23:13;1.80;99.90
15113;DHT22;7657;50.140;7.076;2023-01-19T12:26:00;1.80;99.90
15113;DHT22;7657;50.140;7.076;2023-01-19T12:28:32;1.90;99.90
15113;DHT22;7657;50.140;7.076;2023-01-19T12:31:02;1.90;99.90
15113;DHT22;7657;50.140;7.076;2023-01-19T12:33:32;1.90;99.90
15113;DHT22;7657;50.140;7.076;2023-01-19T12:36:01;2.00;99.90
15113;DHT22;7657;50.140;7.076;2023-01-19T12:38:43;2.00;99.90
15113;DHT22;7657;50.140;7.076;2023-01-19T12:41:27;2.00;99.90
15113;DHT22;7657;50.140;7.076;2023-01-19T12:44:14;2.10;99.90
15113;DHT22;7657;50.140;7.076;2023-01-19T12:46:45;2.10;99.90
15113;DHT22;7657;50.140;7.076;2023-01-19T12:49:20;2.10;99.90
15113;DHT22;7657;50.140;7.076;2023-01-19T12:51:49;2.10;99.90
15113;DHT22;7657;50.140;7.076;2023-01-19T12:54:21;2.00;99.90
15113;DHT22;7657;50.140;7.076;2023-01-19T12:56:56;2.10;99.90
15113;DHT22;7657;50.140;7.076;2023-01-19T12:59:25;2.10;99.90
15113;DHT22;7657;50.140;7.076;2023-01-19T13:02:35;2.00;99.90
15113;DHT22;7657;50.140;7.076;2023-01-19T13:05:12;2.00;99.90
15113;DHT22;7657;50.140;7.076;2023-01-19T13:08:14;2.00;99.90
15113;DHT22;7657;50.140;7.076;2023-01-19T13:16:59;2.20;99.90
15113;DHT22;7657;50.140;7.076;2023-01-19T13:19:37;2.20;99.90
15113;DHT22;7657;50.140;7.076;2023-01-19T13:22:51;2.10;99.90
15113;DHT22;7657;50.140;7.076;2023-01-19T13:25:27;2.20;99.90
15113;DHT22;7657;50.140;7.076;2023-01-19T13:27:55;2.20;99.90
15113;DHT22;7657;50.140;7.076;2023-01-19T13:30:25;2.20;99.90
15113;DHT22;7657;50.140;7.076;2023-01-19T13:32:54;2.30;99.90
15113;DHT22;7657;50.140;7.076;2023-01-19T13:35:23;2.30;99.90
15113;DHT22;7657;50.140;7.076;2023-01-19T13:37:51;2.30;99.90
15113;DHT22;7657;50.140;7.076;2023-01-19T13:40:21;2.40;99.90
15113;DHT22;7657;50.140;7.076;2023-01-19T13:42:50;2.50;99.90
15113;DHT22;7657;50.140;7.076;2023-01-19T13:45:27;2.60;99.90
15113;DHT22;7657;50.140;7.076;2023-01-19T13:47:56;2.60;99.90
15113;DHT22;7657;50.140;7.076;2023-01-19T13:50:27;2.60;99.90
15113;DHT22;7657;50.140;7.076;2023-01-19T13:52:54;2.50;99.90
15113;DHT22;7657;50.140;7.076;2023-01-19T13:55:24;2.40;99.90
15113;DHT22;7657;50.140;7.076;2023-01-19T13:57:52;2.40;99.90
15113;DHT22;7657;50.140;7.076;2023-01-19T14:00:21;2.30;99.90
15113;DHT22;7657;50.140;7.076;2023-01-19T14:02:55;2.40;99.90
15113;DHT22;7657;50.140;7.076;2023-01-19T14:05:27;2.30;99.90
15113;DHT22;7657;50.140;7.076;2023-01-19T14:08:01;2.20;99.90
15113;DHT22;7657;50.140;7.076;2023-01-19T14:10:29;2.20;99.90
15113;DHT22;7657;50.140;7.076;2023-01-19T14:13:01;2.20;99.90
15113;DHT22;7657;50.140;7.076;2023-01-19T14:15:29;2.30;99.90
15113;DHT22;7657;50.140;7.076;2023-01-19T14:18:07;2.30;99.90
15113;DHT22;7657;50.140;7.076;2023-01-19T14:20:36;2.30;99.90
15113;DHT22;7657;50.140;7.076;2023-01-19T14:23:04;2.30;99.90
15113;DHT22;7657;50.140;7.076;2023-01-19T14:25:32;2.30;99.90
15113;DHT22;7657;50.140;7.076;2023-01-19T14:28:28;2.30;99.90
15113;DHT22;7657;50.140;7.076;2023-01-19T14:30:55;2.40;99.90
15113;DHT22;7657;50.140;7.076;2023-01-19T14:33:34;2.40;99.90
15113;DHT22;7657;50.140;7.076;2023-01-19T14:36:26;2.40;99.90
15113;DHT22;7657;50.140;7.076;2023-01-19T14:38:56;2.50;99.90
15113;DHT22;7657;50.140;7.076;2023-01-19T14:41:26;2.40;99.90
15113;DHT22;7657;50.140;7.076;2023-01-19T14:43:54;2.30;99.90
15113;DHT22;7657;50.140;7.076;2023-01-19T14:46:22;2.30;99.90
15113;DHT22;7657;50.140;7.076;2023-01-19T14:48:51;2.30;99.90
15113;DHT22;7657;50.140;7.076;2023-01-19T14:51:22;2.30;99.90
15113;DHT22;7657;50.140;7.076;2023-01-19T14:53:51;2.30;99.90
15113;DHT22;7657;50.140;7.076;2023-01-19T14:56:26;2.40;99.90
15113;DHT22;7657;50.140;7.076;2023-01-19T14:58:54;2.40;99.90
15113;DHT22;7657;50.140;7.076;2023-01-19T15:01:22;2.30;99.90
15113;DHT22;7657;50.140;7.076;2023-01-19T15:03:49;2.30;99.90
15113;DHT22;7657;50.140;7.076;2023-01-19T15:06:18;2.40;99.90
15113;DHT22;7657;50.140;7.076;2023-01-19T15:08:47;2.50;99.90
15113;DHT22;7657;50.140;7.076;2023-01-19T15:11:18;2.40;99.90
15113;DHT22;7657;50.140;7.076;2023-01-19T15:13:47;2.50;99.90
15113;DHT22;7657;50.140;7.076;2023-01-19T15:16:15;2.60;99.90
15113;DHT22;7657;50.140;7.076;2023-01-19T15:18:42;2.70;99.90
15113;DHT22;7657;50.140;7.076;2023-01-19T15:21:10;2.60;99.90
15113;DHT22;7657;50.140;7.076;2023-01-19T15:23:38;2.60;99.90
15113;DHT22;7657;50.140;7.076;2023-01-19T15:26:09;2.70;99.90
15113;DHT22;7657;50.140;7.076;2023-01-19T15:28:38;2.70;99.90
15113;DHT22;7657;50.140;7.076;2023-01-19T15:31:05;2.80;99.90
15113;DHT22;7657;50.140;7.076;2023-01-19T15:33:32;2.90;99.90
15113;DHT22;7657;50.140;7.076;2023-01-19T15:35:59;3.00;99.90
15113;DHT22;7657;50.140;7.076;2023-01-19T15:38:25;2.80;99.90
15113;DHT22;7657;50.140;7.076;2023-01-19T15:40:52;2.80;99.90
15113;DHT22;7657;50.140;7.076;2023-01-19T15:43:20;2.90;99.90
15113;DHT22;7657;50.140;7.076;2023-01-19T15:45:49;3.00;99.90
15113;DHT22;7657;50.140;7.076;2023-01-19T15:48:19;3.00;99.90
15113;DHT22;7657;50.140;7.076;2023-01-19T15:50:47;2.90;99.90
15113;DHT22;7657;50.140;7.076;2023-01-19T15:53:15;2.80;99.90
15113;DHT22;7657;50.140;7.076;2023-01-19T15:55:42;2.80;99.90
15113;DHT22;7657;50.140;7.076;2023-01-19T15:58:09;2.80;99.90
15113;DHT22;7657;50.140;7.076;2023-01-19T16:00:40;2.90;99.90
15113;DHT22;7657;50.140;7.076;2023-01-19T16:03:07;3.00;99.90
15113;DHT22;7657;50.140;7.076;2023-01-19T16:05:34;3.00;99.90
15113;DHT22;7657;50.140;7.076;2023-01-19T16:08:00;3.10;99.90
15113;DHT22;7657;50.140;7.076;2023-01-19T16:10:27;3.10;99.90
15113;DHT22;7657;50.140;7.076;2023-01-19T16:12:54;3.00;99.90
15113;DHT22;7657;50.140;7.076;2023-01-19T16:15:21;2.90;99.90
15113;DHT22;7657;50.140;7.076;2023-01-19T16:17:51;2.80;99.90
15113;DHT22;7657;50.140;7.076;2023-01-19T16:20:18;2.80;99.90
15113;DHT22;7657;50.140;7.076;2023-01-19T16:22:45;2.80;99.90
15113;DHT22;7657;50.140;7.076;2023-01-19T16:25:11;2.80;99.90